Lands End Airport

About
Name: Lands End Airport
Identifier:  LEQ/EGHC
Serves:  St Just in Penwith
Operator:  Land's End Airport Ltd
Public/Private:  Private
Local Time:  25. Aug 14:12 BST
Description: Land's End Airport, situated near St Just in Penwith, 5 NM west of Penzance, in Cornwall, is the most south westerly airport of mainland Britain. The airport is owned by the Isles of Scilly Steamship Company. ISSC's subsidiary Land's End Airport Limited operates the airport, and another subsidiary, Isles of Scilly Skybus, operates a regular passenger service to St Mary's in the Isles of Scilly as well as scenic flights around west Penwith.
Source: Wikipedia
Location
Runways
Identifier Length (m/ft) Surface
16/34 784/2,572 Asphalt [1]
02/20 485/1,591 Grass
07/25 677/2,221 Asphalt
12/30 510/1,673 Grass
Statistics
Flights per Day:
5 flights
Distance: 49km (30mi)
Flights delayed:
97% (0 flights per day delayed)
Delay Average: 214 minutes
Current Weather
 19 C (Humidity: 88%)
  10kt (18km/h / 11mph) from 160°
  Few clouds at 500 feet (152 meter)
  9km (5 mi.)
 METAR EGHC 241620Z 16010KT 9000 FEW005 19/17 Q1015

Current Delays

Departures
N/A
Arrivals
N/A

Destinations

Top Destinations
Airport Flights
per week
Seats
per week
  Isles Of Scilly (ISC) 10 - 1 0
  Newquay (NQY) 0 - 0 0

Airlines & Planes

Top Airlines
Airline Flights
per Day
Seats
per Day
Skybus 1 -
Top Plane Types
Model Flights Seats
Britten-Norman BN2B-26 Islander 1.3/day - 0
De Havilland DHC-6 0.2/day - 0